Riceville, Iowa
Current Conditions -  °F | °C
As of 2:35 AM on Saturday 20 Dec 2014 (Local Time) from KCCY Reporting Station
Unknown Precip Unknown Precip  
Wind Chill: 21°   Ceiling: 900
Heat Index: 28°   Visibility: 3mi
Dew Point: 28°   Wind: 7mph
Humidity: 100%   Direction: 150°SSE
Pressure: 30.2"   Gusts: NA
Location:  43.36°N, 92.55°W
Report Text: KCCY 200835Z AUTO 15006KT 3SM -UP OVC009 M02/M02 A3020 RMK AO2
Loading
Personal Weather Stations






























Interactive Weather Map New forecast layout! Learn more

10-Day Weather Forecast

Advertisements
Track Severe Weather on mobile